Time;durP1;ratioP1;P1;durP2;ratioP2;P2;SDS_P1;SDS_P2;PMS_P1;PMS_P2;Temp;Humidity;BMP_temperature;BMP_pressure;BME280_temperature;BME280_humidity;BME280_pressure;Samples;Min_cycle;Max_cycle;Signal;HPM_P1;HPM_P2
2023/03/21 00:00:43;;;;;;;;;;;;;;;9.30;58.36;95023.31;5133751;27;1918;-58
2023/03/21 00:03:09;;;;;;;;;;;;;;;9.03;58.66;95019.78;5133821;27;1033;-58
2023/03/21 00:05:41;;;;;;;;;;;;;;;8.96;58.67;95027.53;5133767;27;1044;-58
2023/03/21 00:08:07;;;;;;;;;;;;;;;8.99;58.80;95029.06;5132623;28;1046;-58
2023/03/21 00:10:33;;;;;;;;;;;;;;;8.63;59.41;95036.25;5133652;27;983;-58
2023/03/21 00:12:59;;;;;;;;;;;;;;;8.63;59.76;95039.72;5133907;27;957;-58
2023/03/21 00:15:26;;;;;;;;;;;;;;;8.63;59.72;95036.25;5133929;27;976;-58
2023/03/21 00:18:02;;;;;;;;;;;;;;;8.35;59.84;95033.63;5133851;27;976;-58
2023/03/21 00:20:36;;;;;;;;;;;;;;;8.39;59.74;95037.66;5133881;27;1913;-58
2023/03/21 00:23:03;;;;;;;;;;;;;;;8.23;60.04;95034.81;5133909;27;996;-58
2023/03/21 00:25:30;;;;;;;;;;;;;;;8.12;60.85;95033.16;5133805;27;979;-58
2023/03/21 00:27:56;;;;;;;;;;;;;;;8.14;60.45;95029.38;5133695;27;1083;-58
2023/03/21 00:30:22;;;;;;;;;;;;;;;8.16;60.60;95038.06;5122812;27;1646;-58
2023/03/21 00:32:49;;;;;;;;;;;;;;;8.30;60.53;95035.88;5116812;28;1035;-58
2023/03/21 00:35:15;;;;;;;;;;;;;;;8.28;60.58;95032.53;5116844;28;1028;-58
2023/03/21 00:37:41;;;;;;;;;;;;;;;7.93;61.25;95029.66;5116899;28;1054;-58
2023/03/21 00:40:09;;;;;;;;;;;;;;;7.81;61.85;95028.16;5116542;28;1040;-58
2023/03/21 00:42:35;;;;;;;;;;;;;;;7.97;62.11;95025.69;5116665;28;2011;-58
2023/03/21 00:45:03;;;;;;;;;;;;;;;7.86;61.99;95033.03;5116620;28;988;-58
2023/03/21 00:47:29;;;;;;;;;;;;;;;7.80;62.33;95034.47;5115471;28;1058;-58
2023/03/21 00:49:55;;;;;;;;;;;;;;;7.94;61.60;95041.97;5116397;28;1048;-58
2023/03/21 00:52:21;;;;;;;;;;;;;;;7.95;61.36;95032.16;5116529;28;952;-58
2023/03/21 00:54:47;;;;;;;;;;;;;;;8.15;61.10;95022.22;5116516;28;960;-58
2023/03/21 00:57:13;;;;;;;;;;;;;;;8.17;61.51;95023.75;5116161;28;1048;-58
2023/03/21 00:59:39;;;;;;;;;;;;;;;8.06;61.87;95028.44;5116509;28;1024;-58
2023/03/21 01:02:13;;;;;;;;;;;;;;;7.93;62.31;95021.66;5116051;28;1906;-58
2023/03/21 01:04:39;;;;;;;;;;;;;;;8.05;62.14;95026.78;5116157;28;1068;-58
2023/03/21 01:07:05;;;;;;;;;;;;;;;8.07;62.15;95022.97;5116334;28;1031;-58
2023/03/21 01:09:31;;;;;;;;;;;;;;;8.30;61.57;95022.56;5115798;28;1100;-58
2023/03/21 01:11:58;;;;;;;;;;;;;;;8.52;61.24;95027.50;5115931;27;1100;-58
2023/03/21 01:14:24;;;;;;;;;;;;;;;8.58;61.29;95024.22;5115952;28;1008;-58
2023/03/21 01:16:51;;;;;;;;;;;;;;;8.57;61.55;95022.56;5116224;28;980;-58
2023/03/21 01:19:18;;;;;;;;;;;;;;;8.72;60.74;95017.50;5115726;28;1050;-58
2023/03/21 01:21:44;;;;;;;;;;;;;;;8.82;60.31;95013.91;5116033;27;1909;-58
2023/03/21 01:24:10;;;;;;;;;;;;;;;8.78;60.64;95008.91;5115570;27;1052;-58
2023/03/21 01:26:36;;;;;;;;;;;;;;;8.84;60.92;95010.13;5115983;28;1048;-58
2023/03/21 01:29:03;;;;;;;;;;;;;;;8.93;61.24;95006.50;5118848;27;1564;-58
2023/03/21 01:31:29;;;;;;;;;;;;;;;8.87;61.41;95003.63;5136049;27;1078;-58
2023/03/21 01:33:55;;;;;;;;;;;;;;;8.86;61.63;94999.28;5136340;27;975;-58
2023/03/21 01:36:22;;;;;;;;;;;;;;;8.61;62.81;94993.75;5136176;27;1054;-58
2023/03/21 01:38:48;;;;;;;;;;;;;;;8.46;63.16;94993.47;5135882;27;1048;-58
2023/03/21 01:41:25;;;;;;;;;;;;;;;8.51;62.87;94990.34;5135810;27;1909;-58
2023/03/21 01:43:51;;;;;;;;;;;;;;;8.61;62.72;94993.75;5135864;27;935;-58
2023/03/21 01:46:24;;;;;;;;;;;;;;;8.67;62.63;94994.97;5135760;27;1041;-58
2023/03/21 01:48:55;;;;;;;;;;;;;;;8.59;63.24;94998.38;5135790;27;1052;-58
2023/03/21 01:51:22;;;;;;;;;;;;;;;8.46;63.61;95000.59;5134840;27;1051;-58
2023/03/21 01:53:48;;;;;;;;;;;;;;;8.46;63.11;94996.13;5135765;27;1038;-58
2023/03/21 01:56:27;;;;;;;;;;;;;;;8.55;62.73;94995.19;5135603;27;1068;-58
2023/03/21 01:59:03;;;;;;;;;;;;;;;8.63;63.12;95001.59;5135650;27;998;-58
2023/03/21 02:01:30;;;;;;;;;;;;;;;8.41;63.79;95001.03;5135502;27;1910;-58
2023/03/21 02:03:56;;;;;;;;;;;;;;;8.27;64.30;94998.88;5134615;27;1058;-58
2023/03/21 02:06:22;;;;;;;;;;;;;;;8.30;63.81;94991.44;5135536;27;964;-58
2023/03/21 02:08:48;;;;;;;;;;;;;;;8.40;62.96;94994.00;5135323;27;1117;-58
2023/03/21 02:11:15;;;;;;;;;;;;;;;8.30;63.56;94996.75;5135608;27;1027;-58
2023/03/21 02:13:41;;;;;;;;;;;;;;;8.10;63.49;94993.41;5135229;27;1056;-58
2023/03/21 02:16:07;;;;;;;;;;;;;;;8.10;63.72;94993.41;5135569;27;1012;-58
2023/03/21 02:18:36;;;;;;;;;;;;;;;8.27;63.28;95002.41;5135170;27;1024;-58
2023/03/21 02:21:10;;;;;;;;;;;;;;;8.16;64.01;94991.97;5135168;27;1905;-58
2023/03/21 02:23:54;;;;;;;;;;;;;;;8.21;63.52;94998.50;5135381;27;980;-58
2023/03/21 02:26:52;;;;;;;;;;;;;;;8.22;64.11;94996.69;5134141;27;951;-58
2023/03/21 02:29:37;;;;;;;;;;;;;;;8.13;63.67;94990.41;5106321;27;1653;-58
2023/03/21 02:32:03;;;;;;;;;;;;;;;8.17;63.58;94993.63;5114314;28;1949;-58
2023/03/21 02:34:48;;;;;;;;;;;;;;;8.20;63.70;94991.50;5114182;28;1111;-58
2023/03/21 02:37:20;;;;;;;;;;;;;;;8.01;64.33;94980.97;5114545;28;957;-58
2023/03/21 02:39:52;;;;;;;;;;;;;;;7.78;64.94;94984.03;5114217;28;1052;-58
2023/03/21 02:42:20;;;;;;;;;;;;;;;7.63;65.59;94973.03;5114185;28;1985;-58
2023/03/21 02:44:49;;;;;;;;;;;;;;;7.60;65.81;94981.31;5114191;28;1036;-58
2023/03/21 02:47:21;;;;;;;;;;;;;;;7.40;66.12;94993.88;5114325;28;1131;-58
2023/03/21 02:50:06;;;;;;;;;;;;;;;7.39;65.62;94992.19;5113201;28;961;-58
2023/03/21 02:52:34;;;;;;;;;;;;;;;7.38;65.65;94989.66;5113721;28;1039;-58
2023/03/21 02:55:03;;;;;;;;;;;;;;;7.58;65.04;94988.59;5114086;28;965;-58
2023/03/21 02:57:30;;;;;;;;;;;;;;;7.66;64.57;94990.53;5113942;27;1111;-58
2023/03/21 02:59:56;;;;;;;;;;;;;;;7.68;65.14;94990.38;5114204;28;948;-58
2023/03/21 03:02:25;;;;;;;;;;;;;;;7.61;64.96;94987.50;5114123;28;1992;-58
2023/03/21 03:04:52;;;;;;;;;;;;;;;7.29;65.68;95009.19;5114024;28;977;-58
2023/03/21 03:07:27;;;;;;;;;;;;;;;7.19;66.03;95006.50;5113700;28;1040;-58
2023/03/21 03:10:11;;;;;;;;;;;;;;;6.79;67.14;94996.94;5113814;28;1012;-58
2023/03/21 03:12:37;;;;;;;;;;;;;;;6.82;67.25;94991.34;5113961;28;960;-58
2023/03/21 03:15:11;;;;;;;;;;;;;;;7.00;67.00;94992.31;5114041;28;981;-58
2023/03/21 03:17:54;;;;;;;;;;;;;;;7.08;66.95;94996.06;5113889;28;1059;-58
2023/03/21 03:20:20;;;;;;;;;;;;;;;7.15;67.03;94999.81;5123854;27;1193;-58
2023/03/21 03:22:55;;;;;;;;;;;;;;;7.08;67.97;95002.22;5134312;27;1909;-58
2023/03/21 03:25:35;;;;;;;;;;;;;;;7.04;67.98;95008.81;5134367;27;1008;-58
2023/03/21 03:28:03;;;;;;;;;;;;;;;6.89;67.22;94991.63;5134137;27;1041;-58
2023/03/21 03:30:29;;;;;;;;;;;;;;;6.84;67.57;94987.56;5118887;27;1622;-59
2023/03/21 03:32:58;;;;;;;;;;;;;;;6.76;67.53;94986.59;5113904;28;1032;-58
2023/03/21 03:35:25;;;;;;;;;;;;;;;6.81;67.29;94979.03;5113791;28;988;-58
2023/03/21 03:37:56;;;;;;;;;;;;;;;6.89;67.08;94987.16;5113420;28;1072;-58
2023/03/21 03:40:26;;;;;;;;;;;;;;;6.91;66.73;94987.00;5112397;28;1062;-58
2023/03/21 03:42:52;;;;;;;;;;;;;;;6.93;66.89;94982.38;5113449;28;1914;-58
2023/03/21 03:45:25;;;;;;;;;;;;;;;6.71;67.12;94989.66;5113416;28;1044;-58
2023/03/21 03:47:58;;;;;;;;;;;;;;;6.38;68.60;94978.50;5113637;28;1028;-58
2023/03/21 03:50:36;;;;;;;;;;;;;;;6.62;67.85;94982.53;5113439;28;1063;-58
2023/03/21 03:53:10;;;;;;;;;;;;;;;6.79;67.38;94965.91;5113379;28;1043;-58
2023/03/21 03:55:37;;;;;;;;;;;;;;;6.89;67.26;94965.88;5113416;28;1115;-58
2023/03/21 03:58:03;;;;;;;;;;;;;;;6.98;67.42;94980.13;5112146;28;1143;-58
2023/03/21 04:00:33;;;;;;;;;;;;;;;6.88;67.12;94964.19;5112038;28;1135;-59
2023/03/21 04:02:59;;;;;;;;;;;;;;;6.83;67.50;94972.63;5113452;28;1111;-59
2023/03/21 04:05:26;;;;;;;;;;;;;;;6.84;67.35;94970.78;5117560;28;945;-59
2023/03/21 04:07:53;;;;;;;;;;;;;;;6.90;67.76;94970.19;5116272;28;1027;-59
2023/03/21 04:10:20;;;;;;;;;;;;;;;6.99;67.87;94976.50;5117140;28;1060;-58
2023/03/21 04:12:46;;;;;;;;;;;;;;;6.94;68.14;94973.41;5117459;28;1027;-58
2023/03/21 04:15:12;;;;;;;;;;;;;;;6.94;67.75;94960.13;5117266;28;972;-59
2023/03/21 04:17:38;;;;;;;;;;;;;;;6.87;67.95;94974.97;5117106;28;1119;-59
2023/03/21 04:20:06;;;;;;;;;;;;;;;6.85;68.09;94969.81;5117318;28;957;-59
2023/03/21 04:22:33;;;;;;;;;;;;;;;6.87;68.56;94969.66;5116714;28;1905;-59
2023/03/21 04:25:00;;;;;;;;;;;;;;;6.88;68.08;94976.66;5116972;28;956;-59
2023/03/21 04:27:26;;;;;;;;;;;;;;;6.90;67.94;94982.66;5116725;28;1092;-59
2023/03/21 04:29:52;;;;;;;;;;;;;;;6.90;68.03;94983.50;5125804;27;1571;-59
2023/03/21 04:32:23;;;;;;;;;;;;;;;6.88;67.99;94985.47;5137170;27;1126;-59
2023/03/21 04:34:52;;;;;;;;;;;;;;;6.88;68.15;94989.94;5137327;27;1103;-59
2023/03/21 04:37:20;;;;;;;;;;;;;;;6.75;68.48;94979.59;5137185;27;1066;-59
2023/03/21 04:39:46;;;;;;;;;;;;;;;6.60;69.11;94984.50;5137154;27;1046;-59
2023/03/21 04:42:14;;;;;;;;;;;;;;;6.61;68.93;94983.53;5137246;27;1992;-59
2023/03/21 04:44:40;;;;;;;;;;;;;;;6.81;68.49;94985.22;5137370;27;972;-59
2023/03/21 04:47:06;;;;;;;;;;;;;;;6.94;68.32;94992.84;5137352;27;1019;-59
2023/03/21 04:49:33;;;;;;;;;;;;;;;6.99;68.55;94992.44;5137018;27;997;-58
2023/03/21 04:51:59;;;;;;;;;;;;;;;6.71;69.04;94988.84;5136940;27;1047;-58
2023/03/21 04:54:25;;;;;;;;;;;;;;;6.77;68.99;94988.28;5136792;27;1092;-58
2023/03/21 04:56:51;;;;;;;;;;;;;;;6.89;68.93;94988.97;5136855;27;1099;-58
2023/03/21 04:59:17;;;;;;;;;;;;;;;6.95;68.42;94991.88;5136585;27;1111;-58
2023/03/21 05:01:44;;;;;;;;;;;;;;;7.04;68.37;94995.53;5135676;27;2000;-58
2023/03/21 05:04:11;;;;;;;;;;;;;;;7.17;68.04;94995.19;5136767;27;1026;-59
2023/03/21 05:06:37;;;;;;;;;;;;;;;7.29;67.73;94999.38;5136883;27;976;-60
2023/03/21 05:09:04;;;;;;;;;;;;;;;7.34;68.05;95004.22;5136803;27;939;-59
2023/03/21 05:11:31;;;;;;;;;;;;;;;7.40;67.98;95001.84;5136449;27;1063;-59
2023/03/21 05:13:58;;;;;;;;;;;;;;;7.52;67.54;94993.69;5136320;27;1030;-58
2023/03/21 05:16:29;;;;;;;;;;;;;;;7.49;67.86;95001.94;5136287;27;1065;-59
2023/03/21 05:18:56;;;;;;;;;;;;;;;7.63;67.47;94997.00;5136632;27;1284;-59
2023/03/21 05:21:22;;;;;;;;;;;;;;;7.93;66.93;95000.38;5136116;27;1984;-59
2023/03/21 05:23:53;;;;;;;;;;;;;;;8.02;66.30;94998.63;5136226;27;1100;-59
2023/03/21 05:26:19;;;;;;;;;;;;;;;8.32;65.73;94999.28;5136565;27;1046;-59
2023/03/21 05:28:46;;;;;;;;;;;;;;;8.67;65.38;95003.81;5135039;27;1575;-60
2023/03/21 05:31:15;;;;;;;;;;;;;;;9.03;63.95;94994.91;5135985;27;1232;-60
2023/03/21 05:33:42;;;;;;;;;;;;;;;9.29;65.59;95006.44;5136491;27;1306;-58
2023/03/21 05:36:08;;;;;;;;;;;;;;;9.49;64.03;95000.91;5136308;27;1078;-58
2023/03/21 05:38:34;;;;;;;;;;;;;;;9.80;63.18;94998.56;5136256;27;1030;-58
2023/03/21 05:41:00;;;;;;;;;;;;;;;10.25;60.79;95002.72;5136160;27;1989;-59
2023/03/21 05:43:26;;;;;;;;;;;;;;;10.59;62.12;95001.84;5136140;27;968;-60
2023/03/21 05:45:52;;;;;;;;;;;;;;;10.63;60.44;95005.03;5136076;27;1038;-60
2023/03/21 05:48:19;;;;;;;;;;;;;;;10.87;59.66;95004.19;5136044;27;1039;-60
2023/03/21 05:50:45;;;;;;;;;;;;;;;11.20;57.90;95001.53;5135717;27;1044;-59
2023/03/21 05:53:11;;;;;;;;;;;;;;;11.22;57.14;94999.53;5135637;27;996;-59
2023/03/21 05:55:37;;;;;;;;;;;;;;;11.45;55.56;94995.13;5135871;27;976;-61
2023/03/21 05:58:03;;;;;;;;;;;;;;;11.38;56.24;94994.13;5136045;27;988;-60
2023/03/21 06:00:30;;;;;;;;;;;;;;;11.26;56.93;94995.50;5135624;27;1092;-61
2023/03/21 06:02:56;;;;;;;;;;;;;;;11.06;57.23;94989.66;5135711;27;1980;-60
2023/03/21 06:05:22;;;;;;;;;;;;;;;11.02;58.40;94988.31;5134576;27;1073;-60
2023/03/21 06:07:48;;;;;;;;;;;;;;;11.05;58.46;94994.16;5135486;27;1063;-61
2023/03/21 06:10:14;;;;;;;;;;;;;;;11.13;58.26;94996.00;5135659;27;1026;-61
2023/03/21 06:12:42;;;;;;;;;;;;;;;11.19;58.95;94995.31;5135393;27;1087;-60
2023/03/21 06:15:08;;;;;;;;;;;;;;;11.20;58.94;94999.69;5135331;27;1056;-60
2023/03/21 06:17:34;;;;;;;;;;;;;;;11.31;59.30;94988.63;5135655;27;995;-60
2023/03/21 06:20:01;;;;;;;;;;;;;;;11.32;57.88;94989.47;5135247;27;1115;-60
2023/03/21 06:22:27;;;;;;;;;;;;;;;11.35;57.33;94993.66;5134928;27;1902;-60
2023/03/21 06:24:54;;;;;;;;;;;;;;;11.54;56.87;94982.56;5135513;27;1004;-60
2023/03/21 06:27:20;;;;;;;;;;;;;;;11.73;56.03;94986.69;5134536;27;968;-60
2023/03/21 06:29:46;;;;;;;;;;;;;;;11.89;55.96;94989.38;5126287;27;1571;-60
2023/03/21 06:32:12;;;;;;;;;;;;;;;12.00;55.67;94985.44;5114355;28;1075;-60
2023/03/21 06:34:38;;;;;;;;;;;;;;;11.97;55.40;94979.59;5114376;28;1099;-60
2023/03/21 06:37:04;;;;;;;;;;;;;;;12.08;55.85;94984.56;5114217;28;941;-59
2023/03/21 06:39:31;;;;;;;;;;;;;;;12.03;55.99;94989.66;5114559;28;1028;-60
2023/03/21 06:41:58;;;;;;;;;;;;;;;11.79;55.70;94985.19;5114575;28;1913;-60
2023/03/21 06:44:24;;;;;;;;;;;;;;;11.66;56.65;94978.50;5114352;28;960;-60
2023/03/21 06:46:51;;;;;;;;;;;;;;;11.68;56.55;94971.13;5113358;28;1024;-60
2023/03/21 06:49:17;;;;;;;;;;;;;;;11.76;57.05;94972.13;5114087;28;1124;-60
2023/03/21 06:51:43;;;;;;;;;;;;;;;11.70;57.09;94984.34;5114021;28;1288;-60
2023/03/21 06:54:09;;;;;;;;;;;;;;;11.72;57.37;94988.56;5114329;28;995;-60
2023/03/21 06:56:35;;;;;;;;;;;;;;;11.56;58.09;94985.91;5114275;28;1007;-62
2023/03/21 06:59:02;;;;;;;;;;;;;;;11.60;58.51;94992.59;5114120;28;1063;-62
2023/03/21 07:01:29;;;;;;;;;;;;;;;11.39;59.04;94997.66;5113853;28;1984;-62
2023/03/21 07:03:57;;;;;;;;;;;;;;;11.17;59.76;94991.16;5114047;28;1048;-64
2023/03/21 07:06:27;;;;;;;;;;;;;;;11.05;59.18;94996.00;5113808;28;1205;-62
2023/03/21 07:08:54;;;;;;;;;;;;;;;10.98;59.80;94998.50;5113944;28;1029;-60
2023/03/21 07:11:21;;;;;;;;;;;;;;;11.16;60.31;95000.19;5113896;28;984;-58
2023/03/21 07:13:47;;;;;;;;;;;;;;;11.35;58.58;94999.84;5113969;28;1035;-62
2023/03/21 07:16:14;;;;;;;;;;;;;;;11.31;58.37;95003.88;5113811;28;1043;-59
2023/03/21 07:18:41;;;;;;;;;;;;;;;11.43;57.99;95007.84;5112601;28;1038;-62
2023/03/21 07:21:08;;;;;;;;;;;;;;;11.41;57.56;95004.50;5113827;28;1898;-62
2023/03/21 07:23:34;;;;;;;;;;;;;;;11.36;58.15;94995.31;5113854;28;1019;-62
2023/03/21 07:26:00;;;;;;;;;;;;;;;11.38;59.01;94991.44;5113843;28;1040;-62
2023/03/21 07:28:26;;;;;;;;;;;;;;;11.40;59.83;94993.97;5112733;28;1013;-62
2023/03/21 07:30:57;;;;;;;;;;;;;;;11.42;58.33;94994.63;5132198;27;1272;-64
2023/03/21 07:33:23;;;;;;;;;;;;;;;11.33;57.55;94986.63;5134448;27;1036;-63
2023/03/21 07:35:50;;;;;;;;;;;;;;;11.37;57.59;94986.28;5134321;27;968;-62
2023/03/21 07:38:16;;;;;;;;;;;;;;;11.30;57.31;94980.78;5135289;27;1044;-62
2023/03/21 07:40:43;;;;;;;;;;;;;;;11.25;58.00;94967.03;5138340;27;1984;-64
2023/03/21 07:43:09;;;;;;;;;;;;;;;11.53;58.06;94976.38;5138732;27;1027;-64
2023/03/21 07:45:35;;;;;;;;;;;;;;;11.78;56.81;94967.41;5138451;27;1008;-64
2023/03/21 07:48:01;;;;;;;;;;;;;;;11.81;55.90;94972.44;5138486;27;1042;-64
2023/03/21 07:50:27;;;;;;;;;;;;;;;11.94;56.34;94980.78;5136988;27;1602;-64
2023/03/21 07:52:53;;;;;;;;;;;;;;;12.15;55.32;94987.41;5136918;27;1104;-65
2023/03/21 07:55:20;;;;;;;;;;;;;;;12.45;55.63;94985.75;5138195;27;979;-64
2023/03/21 07:57:48;;;;;;;;;;;;;;;12.88;53.59;94988.78;5138013;27;1233;-61
2023/03/21 08:00:21;;;;;;;;;;;;;;;13.36;51.76;94983.25;5136767;27;1159;-61
2023/03/21 08:02:53;;;;;;;;;;;;;;;13.72;52.52;94979.88;5138244;27;1918;-64
2023/03/21 08:05:23;;;;;;;;;;;;;;;13.73;52.82;94976.16;5138043;27;1007;-65
2023/03/21 08:07:49;;;;;;;;;;;;;;;13.51;52.86;94981.41;5138151;27;1049;-64
2023/03/21 08:10:16;;;;;;;;;;;;;;;13.52;52.63;94979.56;5137770;27;1107;-65
2023/03/21 08:12:42;;;;;;;;;;;;;;;13.67;52.00;94981.22;5136882;27;1012;-64
2023/03/21 08:15:08;;;;;;;;;;;;;;;14.14;51.67;94978.34;5138041;27;1006;-65
2023/03/21 08:17:36;;;;;;;;;;;;;;;14.43;51.08;94974.78;5137873;27;1131;-65
2023/03/21 08:20:06;;;;;;;;;;;;;;;14.79;49.59;94985.53;5137794;27;1031;-65
2023/03/21 08:22:32;;;;;;;;;;;;;;;14.83;49.77;94972.53;5137437;27;1992;-64
2023/03/21 08:24:58;;;;;;;;;;;;;;;14.86;49.16;94966.78;5136735;27;1011;-64
2023/03/21 08:27:24;;;;;;;;;;;;;;;14.82;48.75;94968.19;5137522;27;1047;-64
2023/03/21 08:29:50;;;;;;;;;;;;;;;14.62;48.42;94968.81;5126467;27;1376;-65
2023/03/21 08:32:17;;;;;;;;;;;;;;;14.50;49.87;94959.56;5116675;28;1083;-65
2023/03/21 08:34:43;;;;;;;;;;;;;;;14.64;49.43;94968.63;5116822;28;1052;-64
2023/03/21 08:37:10;;;;;;;;;;;;;;;14.73;49.19;94966.66;5117989;27;2808;-64
2023/03/21 08:39:36;;;;;;;;;;;;;;;15.01;49.01;94956.78;5120509;27;2896;-65
2023/03/21 08:42:04;;;;;;;;;;;;;;;15.39;48.18;94953.78;5116590;27;1985;-65
2023/03/21 08:44:30;;;;;;;;;;;;;;;15.93;46.93;94949.59;5116533;28;1043;-65
2023/03/21 08:46:56;;;;;;;;;;;;;;;15.93;46.35;94944.19;5116794;28;984;-63
2023/03/21 08:49:22;;;;;;;;;;;;;;;16.14;45.64;94946.00;5115752;28;1088;-64
2023/03/21 08:51:48;;;;;;;;;;;;;;;16.57;43.98;94956.50;5115620;28;988;-64
2023/03/21 08:54:19;;;;;;;;;;;;;;;16.66;44.49;94954.47;5115413;28;1121;-64
2023/03/21 08:56:45;;;;;;;;;;;;;;;17.01;42.28;94964.31;5116682;28;1047;-64
2023/03/21 08:59:11;;;;;;;;;;;;;;;17.19;42.85;94959.16;5116249;28;1052;-64
2023/03/21 09:01:37;;;;;;;;;;;;;;;16.87;44.04;94953.50;5116565;28;1910;-64
2023/03/21 09:04:06;;;;;;;;;;;;;;;17.14;44.75;94938.16;5116292;28;1100;-64
2023/03/21 09:06:32;;;;;;;;;;;;;;;17.26;43.31;94949.16;5116287;28;995;-63
2023/03/21 09:08:58;;;;;;;;;;;;;;;17.22;43.29;94947.91;5116070;28;1064;-64
2023/03/21 09:11:24;;;;;;;;;;;;;;;17.22;42.88;94957.91;5116008;28;1052;-64
2023/03/21 09:13:50;;;;;;;;;;;;;;;17.22;41.70;94952.50;5115637;28;969;-63
2023/03/21 09:16:16;;;;;;;;;;;;;;;17.50;42.08;94957.69;5116083;28;1030;-63
2023/03/21 09:18:54;;;;;;;;;;;;;;;17.72;41.69;94936.69;5116233;28;1115;-63
2023/03/21 09:21:21;;;;;;;;;;;;;;;17.69;41.40;94932.50;5115995;28;1980;-63
2023/03/21 09:23:51;;;;;;;;;;;;;;;17.60;41.43;94939.16;5115873;28;969;-63
2023/03/21 09:26:18;;;;;;;;;;;;;;;17.58;41.50;94933.16;5115623;28;1108;-63
2023/03/21 09:28:47;;;;;;;;;;;;;;;17.82;41.42;94933.53;5115973;28;1652;-63
2023/03/21 09:31:15;;;;;;;;;;;;;;;17.69;41.94;94926.28;5135956;27;1037;-63
2023/03/21 09:33:42;;;;;;;;;;;;;;;17.84;41.61;94926.03;5136357;27;999;-63
2023/03/21 09:36:14;;;;;;;;;;;;;;;17.70;41.55;94928.78;5136180;27;1028;-59
2023/03/21 09:38:41;;;;;;;;;;;;;;;17.62;41.17;94931.69;5135242;27;996;-60
2023/03/21 09:41:26;;;;;;;;;;;;;;;17.85;41.32;94925.88;5135980;27;1989;-60
2023/03/21 09:44:10;;;;;;;;;;;;;;;18.29;41.18;94920.72;5136346;27;997;-59
2023/03/21 09:46:39;;;;;;;;;;;;;;;18.39;38.97;94931.09;5136303;27;1035;-60
2023/03/21 09:49:10;;;;;;;;;;;;;;;18.78;40.42;94924.66;5136207;27;955;-60
2023/03/21 09:51:40;;;;;;;;;;;;;;;19.13;37.83;94928.81;5134526;27;1668;-60
2023/03/21 09:54:10;;;;;;;;;;;;;;;19.86;38.60;94925.47;5136024;27;1050;-60
2023/03/21 09:56:39;;;;;;;;;;;;;;;20.34;37.70;94919.31;5135798;27;1131;-60
2023/03/21 09:59:07;;;;;;;;;;;;;;;20.71;37.64;94924.72;5135837;27;964;-60
2023/03/21 10:01:40;;;;;;;;;;;;;;;20.20;36.79;94928.66;5134466;27;1914;-60
2023/03/21 10:04:10;;;;;;;;;;;;;;;20.28;37.33;94909.38;5134687;27;1050;-60
2023/03/21 10:06:39;;;;;;;;;;;;;;;20.16;36.17;94911.19;5135664;27;1027;-60
2023/03/21 10:09:08;;;;;;;;;;;;;;;19.96;36.84;94914.97;5134495;27;1012;-60
2023/03/21 10:11:41;;;;;;;;;;;;;;;19.90;37.06;94899.59;5134155;27;1060;-60
2023/03/21 10:14:15;;;;;;;;;;;;;;;20.00;37.32;94899.88;5134403;27;1075;-64
2023/03/21 10:16:43;;;;;;;;;;;;;;;19.65;37.27;94895.00;5135377;27;1053;-66
2023/03/21 10:19:11;;;;;;;;;;;;;;;19.61;38.13;94904.63;5135336;27;1111;-64
2023/03/21 10:21:42;;;;;;;;;;;;;;;19.75;37.77;94894.53;5135085;27;1988;-66
2023/03/21 10:24:12;;;;;;;;;;;;;;;20.16;36.89;94900.31;5134103;27;953;-67
2023/03/21 10:26:39;;;;;;;;;;;;;;;19.94;35.98;94905.38;5135429;27;975;-66
2023/03/21 10:29:05;;;;;;;;;;;;;;;19.51;35.63;94901.59;5135208;27;1382;-67
2023/03/21 10:31:31;;;;;;;;;;;;;;;19.27;37.53;94901.41;5134902;27;1098;-64
2023/03/21 10:34:00;;;;;;;;;;;;;;;18.88;37.03;94897.09;5135079;27;1036;-65
2023/03/21 10:36:28;;;;;;;;;;;;;;;18.98;36.87;94885.78;5134780;27;1103;-65
2023/03/21 10:39:00;;;;;;;;;;;;;;;19.32;36.58;94876.31;5133883;27;972;-66
2023/03/21 10:41:27;;;;;;;;;;;;;;;19.44;35.36;94888.09;5134740;27;1909;-66
2023/03/21 10:44:03;;;;;;;;;;;;;;;19.77;36.49;94872.56;5134009;27;996;-65
2023/03/21 10:46:30;;;;;;;;;;;;;;;19.82;36.97;94865.41;5135034;27;1023;-66
2023/03/21 10:48:56;;;;;;;;;;;;;;;19.77;36.02;94880.72;5133837;27;1024;-66
2023/03/21 10:51:25;;;;;;;;;;;;;;;19.62;36.56;94871.03;5134853;27;1056;-66
2023/03/21 10:53:56;;;;;;;;;;;;;;;19.19;34.87;94877.25;5133522;27;1031;-66
2023/03/21 10:56:26;;;;;;;;;;;;;;;19.00;35.28;94880.97;5134544;27;1107;-66
2023/03/21 10:58:54;;;;;;;;;;;;;;;18.92;35.43;94879.38;5134898;27;1225;-66
2023/03/21 11:01:46;;;;;;;;;;;;;;;18.84;36.20;94871.53;5134362;27;1921;-64
2023/03/21 11:04:17;;;;;;;;;;;;;;;18.87;36.08;94860.22;5131211;27;1220;-63
2023/03/21 11:06:45;;;;;;;;;;;;;;;18.94;35.29;94868.31;5134407;27;991;-65
2023/03/21 11:09:16;;;;;;;;;;;;;;;18.89;34.53;94866.25;5133457;27;1076;-65
2023/03/21 11:12:15;;;;;;;;;;;;;;;18.83;36.33;94849.00;5134252;27;1096;-65
2023/03/21 11:14:41;;;;;;;;;;;;;;;18.70;36.18;94846.34;5110914;27;1352;-63
2023/03/21 11:17:27;;;;;;;;;;;;;;;19.00;36.09;94854.69;5134318;27;969;-65
2023/03/21 11:19:53;;;;;;;;;;;;;;;19.22;35.94;94840.78;5134183;27;1202;-62
2023/03/21 11:22:21;;;;;;;;;;;;;;;19.19;35.00;94847.47;5134236;27;1992;-62
2023/03/21 11:28:14;;;;;;;;;;;;;;;19.48;34.99;94832.38;5134568;28;775;-62
2023/03/21 11:30:57;;;;;;;;;;;;;;;19.52;34.76;94827.34;5117500;27;1560;-63
2023/03/21 11:33:26;;;;;;;;;;;;;;;19.34;34.32;94830.03;5112695;28;1087;-62
2023/03/21 11:36:00;;;;;;;;;;;;;;;19.21;35.33;94823.66;5113496;28;1085;-62
2023/03/21 11:38:29;;;;;;;;;;;;;;;19.11;35.67;94815.22;5113938;28;1043;-62
2023/03/21 11:40:56;;;;;;;;;;;;;;;19.19;35.61;94817.66;5113569;28;1968;-63
2023/03/21 11:43:36;;;;;;;;;;;;;;;19.07;35.52;94809.41;5113888;28;964;-62
2023/03/21 11:46:04;;;;;;;;;;;;;;;18.90;35.13;94816.47;5113847;28;940;-62
2023/03/21 11:48:35;;;;;;;;;;;;;;;18.73;35.34;94810.72;5113414;28;1051;-62
2023/03/21 11:51:03;;;;;;;;;;;;;;;18.74;34.29;94806.94;5113712;28;1043;-62
2023/03/21 11:53:47;;;;;;;;;;;;;;;18.66;34.55;94802.63;5113384;28;1139;-61
2023/03/21 11:56:22;;;;;;;;;;;;;;;18.53;34.60;94800.88;5113431;28;1052;-62
2023/03/21 11:59:04;;;;;;;;;;;;;;;18.60;34.68;94803.53;5112271;28;1118;-62
2023/03/21 12:01:34;;;;;;;;;;;;;;;18.51;35.02;94796.72;5113262;28;1996;-62
2023/03/21 12:04:19;;;;;;;;;;;;;;;18.41;35.11;94794.50;5113691;28;1031;-62
2023/03/21 12:06:53;;;;;;;;;;;;;;;18.57;34.57;94792.28;5113620;28;988;-62
2023/03/21 12:09:26;;;;;;;;;;;;;;;18.76;34.51;94785.88;5113255;28;1060;-62
2023/03/21 12:12:01;;;;;;;;;;;;;;;18.79;34.31;94784.63;5113486;28;976;-62
2023/03/21 12:14:43;;;;;;;;;;;;;;;18.81;34.55;94790.69;5112128;28;996;-62
2023/03/21 12:17:09;;;;;;;;;;;;;;;18.82;34.62;94782.34;5113401;28;1008;-61
2023/03/21 12:19:52;;;;;;;;;;;;;;;18.59;34.30;94776.66;5113311;28;1023;-61
2023/03/21 12:22:21;;;;;;;;;;;;;;;18.33;34.47;94776.63;5113116;28;1905;-61
2023/03/21 12:24:54;;;;;;;;;;;;;;;18.30;34.08;94784.38;5114743;28;1071;-61
2023/03/21 12:27:39;;;;;;;;;;;;;;;18.22;34.09;94784.63;5117239;28;1024;-62
2023/03/21 12:30:29;;;;;;;;;;;;;;;18.27;34.29;94777.53;5127814;27;1644;-62
2023/03/21 12:33:21;;;;;;;;;;;;;;;18.46;34.20;94766.78;5137720;27;977;-62
2023/03/21 12:35:50;;;;;;;;;;;;;;;18.61;34.46;94764.59;5137650;27;999;-61
2023/03/21 12:38:27;;;;;;;;;;;;;;;18.74;34.03;94766.31;5137594;27;1061;-59
2023/03/21 12:41:00;;;;;;;;;;;;;;;18.72;33.84;94768.44;5137325;27;1068;-61
2023/03/21 12:43:39;;;;;;;;;;;;;;;18.65;34.18;94763.09;5137500;27;948;-61
2023/03/21 12:46:21;;;;;;;;;;;;;;;18.70;34.02;94754.28;5137519;27;964;-61
2023/03/21 12:48:47;;;;;;;;;;;;;;;18.70;33.45;94749.72;5137406;27;1008;-61
2023/03/21 12:51:15;;;;;;;;;;;;;;;18.70;33.71;94751.59;5135671;27;1045;-61
2023/03/21 12:53:55;;;;;;;;;;;;;;;18.58;34.81;94750.66;5137014;27;1049;-61
2023/03/21 12:56:26;;;;;;;;;;;;;;;18.53;35.21;94746.72;5137267;27;995;-61
2023/03/21 12:59:05;;;;;;;;;;;;;;;18.52;35.17;94742.34;5137090;27;1004;-63
2023/03/21 13:01:31;;;;;;;;;;;;;;;18.50;35.43;94739.03;5136833;27;1975;-63
2023/03/21 13:04:16;;;;;;;;;;;;;;;18.50;35.13;94735.50;5137158;27;1041;-64
2023/03/21 13:06:45;;;;;;;;;;;;;;;18.56;35.15;94737.34;5135572;27;1040;-62
2023/03/21 13:09:26;;;;;;;;;;;;;;;18.60;34.64;94735.00;5136731;27;1096;-62
2023/03/21 13:11:56;;;;;;;;;;;;;;;18.58;34.59;94729.81;5136842;27;1026;-62
2023/03/21 13:14:32;;;;;;;;;;;;;;;18.65;34.66;94727.88;5135344;27;1024;-62
2023/03/21 13:17:10;;;;;;;;;;;;;;;18.73;34.33;94729.50;5136671;27;1052;-62